sensor_id;sensor_type;location;lat;lon;timestamp;P1;durP1;ratioP1;P2;durP2;ratioP2
68315;SDS011;55508;54.368;18.406;2022-10-31T00:00:58;110.07;;;69.85;;
68315;SDS011;55508;54.368;18.406;2022-10-31T00:03:25;109.95;;;69.32;;
68315;SDS011;55508;54.368;18.406;2022-10-31T00:05:52;147.32;;;85.13;;
68315;SDS011;55508;54.368;18.406;2022-10-31T00:08:19;135.43;;;83.95;;
68315;SDS011;55508;54.368;18.406;2022-10-31T00:10:46;144.82;;;85.28;;
68315;SDS011;55508;54.368;18.406;2022-10-31T00:13:13;218.32;;;97.68;;
68315;SDS011;55508;54.368;18.406;2022-10-31T00:15:41;166.65;;;91.53;;
68315;SDS011;55508;54.368;18.406;2022-10-31T00:18:08;172.30;;;90.13;;
68315;SDS011;55508;54.368;18.406;2022-10-31T00:20:36;140.05;;;82.05;;
68315;SDS011;55508;54.368;18.406;2022-10-31T00:23:04;173.48;;;84.50;;
68315;SDS011;55508;54.368;18.406;2022-10-31T00:25:35;191.15;;;84.45;;
68315;SDS011;55508;54.368;18.406;2022-10-31T00:28:04;183.07;;;77.35;;
68315;SDS011;55508;54.368;18.406;2022-10-31T00:30:33;248.07;;;83.80;;
68315;SDS011;55508;54.368;18.406;2022-10-31T00:33:02;295.65;;;93.30;;
68315;SDS011;55508;54.368;18.406;2022-10-31T00:35:30;362.63;;;89.55;;
68315;SDS011;55508;54.368;18.406;2022-10-31T00:37:57;215.63;;;77.95;;
68315;SDS011;55508;54.368;18.406;2022-10-31T00:40:24;222.73;;;75.90;;
68315;SDS011;55508;54.368;18.406;2022-10-31T00:42:52;182.13;;;67.15;;
68315;SDS011;55508;54.368;18.406;2022-10-31T00:45:19;209.25;;;71.60;;
68315;SDS011;55508;54.368;18.406;2022-10-31T00:47:46;250.93;;;73.55;;
68315;SDS011;55508;54.368;18.406;2022-10-31T00:50:13;156.63;;;59.80;;
68315;SDS011;55508;54.368;18.406;2022-10-31T00:52:40;198.88;;;62.45;;
68315;SDS011;55508;54.368;18.406;2022-10-31T00:55:07;226.82;;;66.03;;
68315;SDS011;55508;54.368;18.406;2022-10-31T00:57:34;220.35;;;63.88;;
68315;SDS011;55508;54.368;18.406;2022-10-31T01:00:04;172.00;;;55.53;;
68315;SDS011;55508;54.368;18.406;2022-10-31T01:02:31;130.30;;;49.47;;
68315;SDS011;55508;54.368;18.406;2022-10-31T01:04:59;289.40;;;69.70;;
68315;SDS011;55508;54.368;18.406;2022-10-31T01:07:26;217.20;;;64.18;;
68315;SDS011;55508;54.368;18.406;2022-10-31T01:09:53;251.18;;;62.35;;
68315;SDS011;55508;54.368;18.406;2022-10-31T01:12:20;290.38;;;67.68;;
68315;SDS011;55508;54.368;18.406;2022-10-31T01:14:47;294.65;;;66.05;;
68315;SDS011;55508;54.368;18.406;2022-10-31T01:17:17;275.92;;;66.25;;
68315;SDS011;55508;54.368;18.406;2022-10-31T01:19:45;338.40;;;64.38;;
68315;SDS011;55508;54.368;18.406;2022-10-31T01:22:12;216.70;;;51.80;;
68315;SDS011;55508;54.368;18.406;2022-10-31T01:24:39;258.95;;;61.38;;
68315;SDS011;55508;54.368;18.406;2022-10-31T01:27:06;185.07;;;82.38;;
68315;SDS011;55508;54.368;18.406;2022-10-31T01:29:33;240.68;;;91.85;;
68315;SDS011;55508;54.368;18.406;2022-10-31T01:32:00;232.85;;;90.35;;
68315;SDS011;55508;54.368;18.406;2022-10-31T01:34:27;240.63;;;86.00;;
68315;SDS011;55508;54.368;18.406;2022-10-31T01:36:54;298.60;;;93.30;;
68315;SDS011;55508;54.368;18.406;2022-10-31T01:39:21;291.10;;;96.35;;
68315;SDS011;55508;54.368;18.406;2022-10-31T01:41:52;310.23;;;97.07;;
68315;SDS011;55508;54.368;18.406;2022-10-31T01:46:48;271.17;;;93.75;;
68315;SDS011;55508;54.368;18.406;2022-10-31T01:49:17;359.27;;;106.65;;
68315;SDS011;55508;54.368;18.406;2022-10-31T01:51:49;240.20;;;83.72;;
68315;SDS011;55508;54.368;18.406;2022-10-31T01:54:20;214.20;;;81.18;;
68315;SDS011;55508;54.368;18.406;2022-10-31T01:56:49;240.73;;;90.60;;
68315;SDS011;55508;54.368;18.406;2022-10-31T01:59:18;187.27;;;74.97;;
68315;SDS011;55508;54.368;18.406;2022-10-31T02:01:47;146.30;;;64.88;;
68315;SDS011;55508;54.368;18.406;2022-10-31T02:04:14;162.23;;;69.35;;
68315;SDS011;55508;54.368;18.406;2022-10-31T02:09:43;192.73;;;71.85;;
68315;SDS011;55508;54.368;18.406;2022-10-31T02:12:11;290.98;;;86.28;;
68315;SDS011;55508;54.368;18.406;2022-10-31T02:14:38;230.52;;;73.13;;
68315;SDS011;55508;54.368;18.406;2022-10-31T02:17:06;349.35;;;85.65;;
68315;SDS011;55508;54.368;18.406;2022-10-31T02:24:58;325.40;;;79.28;;
68315;SDS011;55508;54.368;18.406;2022-10-31T02:33:43;133.18;;;59.42;;
68315;SDS011;55508;54.368;18.406;2022-10-31T02:39:11;323.30;;;74.45;;
68315;SDS011;55508;54.368;18.406;2022-10-31T02:52:34;200.48;;;44.47;;
68315;SDS011;55508;54.368;18.406;2022-10-31T02:57:56;237.00;;;43.83;;
68315;SDS011;55508;54.368;18.406;2022-10-31T03:00:29;195.05;;;42.40;;
68315;SDS011;55508;54.368;18.406;2022-10-31T03:03:05;342.58;;;50.45;;
68315;SDS011;55508;54.368;18.406;2022-10-31T03:10:59;299.13;;;49.88;;
68315;SDS011;55508;54.368;18.406;2022-10-31T03:19:05;240.70;;;57.88;;
68315;SDS011;55508;54.368;18.406;2022-10-31T03:24:11;259.55;;;46.30;;
68315;SDS011;55508;54.368;18.406;2022-10-31T03:26:46;229.30;;;47.38;;
68315;SDS011;55508;54.368;18.406;2022-10-31T03:29:16;348.40;;;51.90;;
68315;SDS011;55508;54.368;18.406;2022-10-31T03:31:55;202.55;;;44.13;;
68315;SDS011;55508;54.368;18.406;2022-10-31T03:34:24;420.02;;;59.70;;
68315;SDS011;55508;54.368;18.406;2022-10-31T03:36:53;347.92;;;54.92;;
68315;SDS011;55508;54.368;18.406;2022-10-31T03:39:23;369.27;;;54.03;;
68315;SDS011;55508;54.368;18.406;2022-10-31T03:41:55;109.75;;;38.05;;
68315;SDS011;55508;54.368;18.406;2022-10-31T03:44:25;399.77;;;52.05;;
68315;SDS011;55508;54.368;18.406;2022-10-31T03:46:58;597.92;;;62.70;;
68315;SDS011;55508;54.368;18.406;2022-10-31T03:49:26;483.08;;;56.80;;
68315;SDS011;55508;54.368;18.406;2022-10-31T03:52:04;554.00;;;63.00;;
68315;SDS011;55508;54.368;18.406;2022-10-31T03:54:44;510.98;;;61.22;;
68315;SDS011;55508;54.368;18.406;2022-10-31T04:03:03;447.60;;;57.30;;
68315;SDS011;55508;54.368;18.406;2022-10-31T04:05:35;646.47;;;69.78;;
68315;SDS011;55508;54.368;18.406;2022-10-31T04:08:04;591.38;;;71.88;;
68315;SDS011;55508;54.368;18.406;2022-10-31T04:10:34;740.72;;;76.75;;
68315;SDS011;55508;54.368;18.406;2022-10-31T04:13:07;673.72;;;71.80;;
68315;SDS011;55508;54.368;18.406;2022-10-31T04:15:42;546.78;;;66.75;;
68315;SDS011;55508;54.368;18.406;2022-10-31T04:18:10;288.45;;;60.03;;
68315;SDS011;55508;54.368;18.406;2022-10-31T04:20:38;371.20;;;65.53;;
68315;SDS011;55508;54.368;18.406;2022-10-31T04:23:18;820.40;;;89.10;;
68315;SDS011;55508;54.368;18.406;2022-10-31T04:25:48;576.45;;;72.30;;
68315;SDS011;55508;54.368;18.406;2022-10-31T04:28:16;408.02;;;64.75;;
68315;SDS011;55508;54.368;18.406;2022-10-31T04:30:43;367.83;;;58.55;;
68315;SDS011;55508;54.368;18.406;2022-10-31T04:33:10;388.25;;;61.50;;
68315;SDS011;55508;54.368;18.406;2022-10-31T04:35:37;465.88;;;62.10;;
68315;SDS011;55508;54.368;18.406;2022-10-31T04:38:04;540.50;;;61.03;;
68315;SDS011;55508;54.368;18.406;2022-10-31T04:40:32;593.97;;;62.85;;
68315;SDS011;55508;54.368;18.406;2022-10-31T04:43:32;505.23;;;52.75;;
68315;SDS011;55508;54.368;18.406;2022-10-31T04:46:00;497.70;;;55.78;;
68315;SDS011;55508;54.368;18.406;2022-10-31T04:48:27;556.00;;;55.58;;
68315;SDS011;55508;54.368;18.406;2022-10-31T04:51:01;509.83;;;54.65;;
68315;SDS011;55508;54.368;18.406;2022-10-31T04:53:28;601.13;;;59.97;;
68315;SDS011;55508;54.368;18.406;2022-10-31T04:56:13;644.28;;;63.03;;
68315;SDS011;55508;54.368;18.406;2022-10-31T04:58:44;512.33;;;53.88;;
68315;SDS011;55508;54.368;18.406;2022-10-31T05:01:12;611.50;;;59.95;;
68315;SDS011;55508;54.368;18.406;2022-10-31T05:03:39;495.02;;;51.83;;
68315;SDS011;55508;54.368;18.406;2022-10-31T05:06:06;458.73;;;51.30;;
68315;SDS011;55508;54.368;18.406;2022-10-31T05:08:36;767.95;;;69.10;;
68315;SDS011;55508;54.368;18.406;2022-10-31T05:11:05;990.85;;;73.32;;
68315;SDS011;55508;54.368;18.406;2022-10-31T05:13:33;607.10;;;60.70;;
68315;SDS011;55508;54.368;18.406;2022-10-31T05:16:11;514.75;;;54.22;;
68315;SDS011;55508;54.368;18.406;2022-10-31T05:18:57;621.65;;;61.50;;
68315;SDS011;55508;54.368;18.406;2022-10-31T05:21:43;463.48;;;53.33;;
68315;SDS011;55508;54.368;18.406;2022-10-31T05:24:10;492.55;;;54.80;;
68315;SDS011;55508;54.368;18.406;2022-10-31T05:26:39;320.23;;;47.97;;
68315;SDS011;55508;54.368;18.406;2022-10-31T05:29:08;394.02;;;51.13;;
68315;SDS011;55508;54.368;18.406;2022-10-31T05:31:35;461.42;;;57.60;;
68315;SDS011;55508;54.368;18.406;2022-10-31T05:34:04;471.52;;;56.70;;
68315;SDS011;55508;54.368;18.406;2022-10-31T05:36:31;350.98;;;46.47;;
68315;SDS011;55508;54.368;18.406;2022-10-31T05:39:08;400.33;;;51.53;;
68315;SDS011;55508;54.368;18.406;2022-10-31T05:41:40;320.77;;;48.20;;
68315;SDS011;55508;54.368;18.406;2022-10-31T05:44:13;366.63;;;51.95;;
68315;SDS011;55508;54.368;18.406;2022-10-31T05:47:07;315.20;;;48.38;;
68315;SDS011;55508;54.368;18.406;2022-10-31T05:49:52;454.25;;;60.90;;
68315;SDS011;55508;54.368;18.406;2022-10-31T05:52:38;418.35;;;58.20;;
68315;SDS011;55508;54.368;18.406;2022-10-31T05:55:18;455.35;;;60.90;;
68315;SDS011;55508;54.368;18.406;2022-10-31T05:58:03;454.13;;;62.03;;
68315;SDS011;55508;54.368;18.406;2022-10-31T06:00:33;253.63;;;50.85;;
68315;SDS011;55508;54.368;18.406;2022-10-31T06:03:07;324.38;;;53.20;;
68315;SDS011;55508;54.368;18.406;2022-10-31T06:05:41;440.38;;;60.05;;
68315;SDS011;55508;54.368;18.406;2022-10-31T06:08:08;397.08;;;58.17;;
68315;SDS011;55508;54.368;18.406;2022-10-31T06:10:37;464.58;;;63.03;;
68315;SDS011;55508;54.368;18.406;2022-10-31T06:13:04;511.23;;;67.85;;
68315;SDS011;55508;54.368;18.406;2022-10-31T06:15:39;532.05;;;65.47;;
68315;SDS011;55508;54.368;18.406;2022-10-31T06:18:08;616.42;;;70.90;;
68315;SDS011;55508;54.368;18.406;2022-10-31T06:20:45;478.85;;;57.10;;
68315;SDS011;55508;54.368;18.406;2022-10-31T06:23:12;545.40;;;65.63;;
68315;SDS011;55508;54.368;18.406;2022-10-31T06:25:42;310.48;;;51.72;;
68315;SDS011;55508;54.368;18.406;2022-10-31T06:28:10;383.67;;;57.60;;
68315;SDS011;55508;54.368;18.406;2022-10-31T06:31:01;391.75;;;56.03;;
68315;SDS011;55508;54.368;18.406;2022-10-31T06:33:30;369.95;;;60.28;;
68315;SDS011;55508;54.368;18.406;2022-10-31T06:36:00;359.02;;;59.53;;
68315;SDS011;55508;54.368;18.406;2022-10-31T06:38:27;197.07;;;50.17;;
68315;SDS011;55508;54.368;18.406;2022-10-31T06:40:56;325.67;;;57.70;;
68315;SDS011;55508;54.368;18.406;2022-10-31T06:43:27;283.25;;;54.33;;
68315;SDS011;55508;54.368;18.406;2022-10-31T06:46:13;356.75;;;58.28;;
68315;SDS011;55508;54.368;18.406;2022-10-31T06:49:00;373.30;;;57.95;;
68315;SDS011;55508;54.368;18.406;2022-10-31T06:51:47;384.05;;;61.03;;
68315;SDS011;55508;54.368;18.406;2022-10-31T06:54:15;315.92;;;56.88;;
68315;SDS011;55508;54.368;18.406;2022-10-31T06:56:45;183.50;;;46.47;;
68315;SDS011;55508;54.368;18.406;2022-10-31T06:59:14;363.67;;;54.80;;
68315;SDS011;55508;54.368;18.406;2022-10-31T07:02:01;304.65;;;54.35;;
68315;SDS011;55508;54.368;18.406;2022-10-31T07:04:29;226.15;;;51.50;;
68315;SDS011;55508;54.368;18.406;2022-10-31T07:06:56;281.10;;;54.80;;
68315;SDS011;55508;54.368;18.406;2022-10-31T07:09:24;504.00;;;59.97;;
68315;SDS011;55508;54.368;18.406;2022-10-31T07:11:55;504.70;;;59.17;;
68315;SDS011;55508;54.368;18.406;2022-10-31T07:14:22;319.40;;;53.60;;
68315;SDS011;55508;54.368;18.406;2022-10-31T07:16:49;235.80;;;49.33;;
68315;SDS011;55508;54.368;18.406;2022-10-31T07:19:23;367.95;;;56.40;;
68315;SDS011;55508;54.368;18.406;2022-10-31T07:21:50;556.47;;;69.00;;
68315;SDS011;55508;54.368;18.406;2022-10-31T07:24:17;436.00;;;64.85;;
68315;SDS011;55508;54.368;18.406;2022-10-31T07:27:03;186.75;;;48.78;;
68315;SDS011;55508;54.368;18.406;2022-10-31T07:29:30;277.55;;;55.65;;
68315;SDS011;55508;54.368;18.406;2022-10-31T07:31:57;174.68;;;48.05;;
68315;SDS011;55508;54.368;18.406;2022-10-31T07:34:27;222.30;;;52.72;;
68315;SDS011;55508;54.368;18.406;2022-10-31T07:37:12;143.55;;;45.22;;
68315;SDS011;55508;54.368;18.406;2022-10-31T07:39:40;145.65;;;45.15;;
68315;SDS011;55508;54.368;18.406;2022-10-31T07:42:08;158.20;;;47.00;;
68315;SDS011;55508;54.368;18.406;2022-10-31T07:44:41;152.27;;;46.33;;
68315;SDS011;55508;54.368;18.406;2022-10-31T07:47:26;145.88;;;46.30;;
68315;SDS011;55508;54.368;18.406;2022-10-31T07:50:13;167.45;;;47.50;;
68315;SDS011;55508;54.368;18.406;2022-10-31T07:53:09;153.75;;;44.97;;
68315;SDS011;55508;54.368;18.406;2022-10-31T07:55:40;166.43;;;46.50;;
68315;SDS011;55508;54.368;18.406;2022-10-31T07:58:09;132.30;;;42.75;;
68315;SDS011;55508;54.368;18.406;2022-10-31T08:00:39;150.93;;;43.70;;
68315;SDS011;55508;54.368;18.406;2022-10-31T08:05:49;102.43;;;39.10;;
68315;SDS011;55508;54.368;18.406;2022-10-31T08:08:35;103.50;;;39.38;;
68315;SDS011;55508;54.368;18.406;2022-10-31T08:11:05;135.07;;;43.78;;
68315;SDS011;55508;54.368;18.406;2022-10-31T08:13:32;109.72;;;42.53;;
68315;SDS011;55508;54.368;18.406;2022-10-31T08:15:59;109.50;;;39.88;;
68315;SDS011;55508;54.368;18.406;2022-10-31T08:18:33;106.18;;;40.55;;
68315;SDS011;55508;54.368;18.406;2022-10-31T08:21:02;175.75;;;45.88;;
68315;SDS011;55508;54.368;18.406;2022-10-31T08:23:29;129.25;;;44.33;;
68315;SDS011;55508;54.368;18.406;2022-10-31T08:25:57;149.57;;;45.65;;
68315;SDS011;55508;54.368;18.406;2022-10-31T08:28:24;153.52;;;44.85;;
68315;SDS011;55508;54.368;18.406;2022-10-31T08:30:53;135.50;;;43.28;;
68315;SDS011;55508;54.368;18.406;2022-10-31T08:33:38;143.60;;;44.88;;
68315;SDS011;55508;54.368;18.406;2022-10-31T08:36:18;123.20;;;46.25;;
68315;SDS011;55508;54.368;18.406;2022-10-31T08:38:48;176.63;;;46.90;;
68315;SDS011;55508;54.368;18.406;2022-10-31T08:41:16;117.68;;;41.75;;
68315;SDS011;55508;54.368;18.406;2022-10-31T08:43:43;143.55;;;46.63;;
68315;SDS011;55508;54.368;18.406;2022-10-31T08:46:11;143.93;;;43.30;;
68315;SDS011;55508;54.368;18.406;2022-10-31T08:48:39;129.80;;;42.45;;
68315;SDS011;55508;54.368;18.406;2022-10-31T08:51:06;165.68;;;44.50;;
68315;SDS011;55508;54.368;18.406;2022-10-31T08:53:33;143.93;;;43.72;;
68315;SDS011;55508;54.368;18.406;2022-10-31T08:56:26;184.63;;;45.55;;
68315;SDS011;55508;54.368;18.406;2022-10-31T08:58:53;131.65;;;41.90;;
68315;SDS011;55508;54.368;18.406;2022-10-31T09:01:30;125.57;;;42.60;;
68315;SDS011;55508;54.368;18.406;2022-10-31T09:03:57;124.53;;;41.78;;
68315;SDS011;55508;54.368;18.406;2022-10-31T09:06:25;105.57;;;41.17;;
68315;SDS011;55508;54.368;18.406;2022-10-31T09:08:52;129.60;;;42.95;;
68315;SDS011;55508;54.368;18.406;2022-10-31T09:11:21;140.90;;;44.03;;
68315;SDS011;55508;54.368;18.406;2022-10-31T09:14:07;116.03;;;46.88;;
68315;SDS011;55508;54.368;18.406;2022-10-31T09:16:36;117.32;;;47.95;;
68315;SDS011;55508;54.368;18.406;2022-10-31T09:19:05;118.63;;;42.28;;
68315;SDS011;55508;54.368;18.406;2022-10-31T09:21:37;117.63;;;40.97;;
68315;SDS011;55508;54.368;18.406;2022-10-31T09:24:04;115.28;;;41.67;;
68315;SDS011;55508;54.368;18.406;2022-10-31T09:26:32;118.80;;;41.78;;
68315;SDS011;55508;54.368;18.406;2022-10-31T09:29:07;108.97;;;43.00;;
68315;SDS011;55508;54.368;18.406;2022-10-31T09:31:37;116.13;;;43.10;;
68315;SDS011;55508;54.368;18.406;2022-10-31T09:34:24;120.05;;;41.58;;
68315;SDS011;55508;54.368;18.406;2022-10-31T09:37:01;119.50;;;44.83;;
68315;SDS011;55508;54.368;18.406;2022-10-31T09:39:28;113.75;;;42.80;;
68315;SDS011;55508;54.368;18.406;2022-10-31T09:50:36;122.90;;;48.65;;
68315;SDS011;55508;54.368;18.406;2022-10-31T09:53:39;138.95;;;57.85;;
68315;SDS011;55508;54.368;18.406;2022-10-31T09:56:11;116.25;;;48.05;;
68315;SDS011;55508;54.368;18.406;2022-10-31T09:58:41;112.85;;;47.40;;
68315;SDS011;55508;54.368;18.406;2022-10-31T10:01:19;99.95;;;45.63;;
68315;SDS011;55508;54.368;18.406;2022-10-31T10:03:54;101.30;;;44.30;;
68315;SDS011;55508;54.368;18.406;2022-10-31T10:06:46;96.60;;;45.60;;
68315;SDS011;55508;54.368;18.406;2022-10-31T10:09:32;95.65;;;45.60;;
68315;SDS011;55508;54.368;18.406;2022-10-31T10:12:23;80.97;;;43.28;;
68315;SDS011;55508;54.368;18.406;2022-10-31T10:15:00;76.07;;;42.20;;
68315;SDS011;55508;54.368;18.406;2022-10-31T10:23:45;72.30;;;40.72;;
68315;SDS011;55508;54.368;18.406;2022-10-31T10:26:37;62.83;;;40.17;;
68315;SDS011;55508;54.368;18.406;2022-10-31T10:29:16;61.70;;;37.95;;
68315;SDS011;55508;54.368;18.406;2022-10-31T10:31:52;71.65;;;39.85;;
68315;SDS011;55508;54.368;18.406;2022-10-31T10:36:52;61.50;;;38.03;;
68315;SDS011;55508;54.368;18.406;2022-10-31T10:39:25;58.85;;;36.90;;
68315;SDS011;55508;54.368;18.406;2022-10-31T10:41:57;55.33;;;36.50;;
68315;SDS011;55508;54.368;18.406;2022-10-31T10:44:45;55.83;;;36.00;;
68315;SDS011;55508;54.368;18.406;2022-10-31T10:47:40;57.78;;;36.60;;
68315;SDS011;55508;54.368;18.406;2022-10-31T10:54:13;55.75;;;35.80;;
68315;SDS011;55508;54.368;18.406;2022-10-31T10:57:11;61.28;;;36.88;;
68315;SDS011;55508;54.368;18.406;2022-10-31T10:59:41;56.03;;;35.15;;
68315;SDS011;55508;54.368;18.406;2022-10-31T11:02:30;51.80;;;35.67;;
68315;SDS011;55508;54.368;18.406;2022-10-31T11:04:58;57.25;;;37.03;;
68315;SDS011;55508;54.368;18.406;2022-10-31T11:07:37;54.42;;;35.22;;
68315;SDS011;55508;54.368;18.406;2022-10-31T11:10:06;55.80;;;35.53;;
68315;SDS011;55508;54.368;18.406;2022-10-31T11:12:40;55.30;;;33.03;;
68315;SDS011;55508;54.368;18.406;2022-10-31T11:15:22;51.35;;;32.20;;
68315;SDS011;55508;54.368;18.406;2022-10-31T11:17:51;53.17;;;33.00;;
68315;SDS011;55508;54.368;18.406;2022-10-31T11:22:47;51.83;;;32.88;;
68315;SDS011;55508;54.368;18.406;2022-10-31T11:25:21;49.20;;;31.50;;
68315;SDS011;55508;54.368;18.406;2022-10-31T11:28:02;49.25;;;31.70;;
68315;SDS011;55508;54.368;18.406;2022-10-31T11:30:35;51.42;;;33.33;;
68315;SDS011;55508;54.368;18.406;2022-10-31T11:33:22;50.55;;;33.55;;
68315;SDS011;55508;54.368;18.406;2022-10-31T11:35:57;54.15;;;33.63;;
68315;SDS011;55508;54.368;18.406;2022-10-31T11:38:31;33.72;;;24.25;;
68315;SDS011;55508;54.368;18.406;2022-10-31T11:41:46;41.72;;;28.42;;
68315;SDS011;55508;54.368;18.406;2022-10-31T11:43:51;47.20;;;30.35;;
68315;SDS011;55508;54.368;18.406;2022-10-31T11:46:22;56.00;;;32.05;;
68315;SDS011;55508;54.368;18.406;2022-10-31T11:48:57;48.72;;;30.00;;
68315;SDS011;55508;54.368;18.406;2022-10-31T11:51:28;52.28;;;31.27;;
68315;SDS011;55508;54.368;18.406;2022-10-31T11:54:00;48.53;;;31.83;;
68315;SDS011;55508;54.368;18.406;2022-10-31T11:56:38;51.40;;;32.78;;
68315;SDS011;55508;54.368;18.406;2022-10-31T11:59:15;55.83;;;31.70;;
68315;SDS011;55508;54.368;18.406;2022-10-31T12:01:47;61.17;;;36.20;;
68315;SDS011;55508;54.368;18.406;2022-10-31T12:04:16;56.55;;;36.67;;
68315;SDS011;55508;54.368;18.406;2022-10-31T12:06:46;68.82;;;37.53;;
68315;SDS011;55508;54.368;18.406;2022-10-31T12:09:21;59.40;;;34.80;;
68315;SDS011;55508;54.368;18.406;2022-10-31T12:11:56;72.80;;;37.65;;
68315;SDS011;55508;54.368;18.406;2022-10-31T12:22:58;57.13;;;33.38;;
68315;SDS011;55508;54.368;18.406;2022-10-31T12:25:50;55.67;;;32.33;;
68315;SDS011;55508;54.368;18.406;2022-10-31T12:48:18;53.50;;;31.30;;
68315;SDS011;55508;54.368;18.406;2022-10-31T12:59:20;49.08;;;31.35;;
68315;SDS011;55508;54.368;18.406;2022-10-31T13:01:55;49.05;;;31.25;;
68315;SDS011;55508;54.368;18.406;2022-10-31T13:07:14;52.03;;;33.20;;
68315;SDS011;55508;54.368;18.406;2022-10-31T13:12:49;69.50;;;38.60;;
68315;SDS011;55508;54.368;18.406;2022-10-31T13:15:19;79.95;;;43.50;;
68315;SDS011;55508;54.368;18.406;2022-10-31T13:17:53;77.95;;;39.85;;
68315;SDS011;55508;54.368;18.406;2022-10-31T13:20:30;62.20;;;36.15;;
68315;SDS011;55508;54.368;18.406;2022-10-31T13:23:42;65.43;;;37.90;;
68315;SDS011;55508;54.368;18.406;2022-10-31T13:26:13;62.60;;;34.20;;
68315;SDS011;55508;54.368;18.406;2022-10-31T13:28:48;59.33;;;33.88;;
68315;SDS011;55508;54.368;18.406;2022-10-31T13:31:24;61.33;;;36.17;;
68315;SDS011;55508;54.368;18.406;2022-10-31T13:33:59;134.90;;;67.25;;
68315;SDS011;55508;54.368;18.406;2022-10-31T13:36:37;84.40;;;43.40;;
68315;SDS011;55508;54.368;18.406;2022-10-31T13:39:18;69.75;;;39.85;;
68315;SDS011;55508;54.368;18.406;2022-10-31T13:45:16;67.63;;;38.00;;
68315;SDS011;55508;54.368;18.406;2022-10-31T13:47:58;69.07;;;37.50;;
68315;SDS011;55508;54.368;18.406;2022-10-31T13:50:28;76.22;;;39.88;;
68315;SDS011;55508;54.368;18.406;2022-10-31T13:55:41;61.92;;;35.97;;
68315;SDS011;55508;54.368;18.406;2022-10-31T13:58:27;67.00;;;38.28;;
68315;SDS011;55508;54.368;18.406;2022-10-31T14:03:42;81.60;;;44.15;;
68315;SDS011;55508;54.368;18.406;2022-10-31T14:09:28;70.85;;;39.42;;
68315;SDS011;55508;54.368;18.406;2022-10-31T14:12:01;63.33;;;35.30;;
68315;SDS011;55508;54.368;18.406;2022-10-31T14:14:50;69.10;;;35.95;;
68315;SDS011;55508;54.368;18.406;2022-10-31T14:17:23;75.07;;;40.63;;
68315;SDS011;55508;54.368;18.406;2022-10-31T14:22:40;77.22;;;39.53;;
68315;SDS011;55508;54.368;18.406;2022-10-31T14:27:54;90.95;;;40.75;;
68315;SDS011;55508;54.368;18.406;2022-10-31T14:30:22;86.18;;;43.53;;
68315;SDS011;55508;54.368;18.406;2022-10-31T14:32:55;94.20;;;45.25;;
68315;SDS011;55508;54.368;18.406;2022-10-31T14:35:26;81.97;;;41.85;;
68315;SDS011;55508;54.368;18.406;2022-10-31T14:38:08;83.65;;;39.58;;
68315;SDS011;55508;54.368;18.406;2022-10-31T14:41:06;58.38;;;31.42;;
68315;SDS011;55508;54.368;18.406;2022-10-31T14:52:12;68.57;;;33.88;;
68315;SDS011;55508;54.368;18.406;2022-10-31T14:54:41;69.10;;;33.05;;
68315;SDS011;55508;54.368;18.406;2022-10-31T14:57:19;87.13;;;39.15;;
68315;SDS011;55508;54.368;18.406;2022-10-31T14:59:50;83.82;;;37.83;;
68315;SDS011;55508;54.368;18.406;2022-10-31T15:02:33;88.30;;;37.45;;
68315;SDS011;55508;54.368;18.406;2022-10-31T15:05:12;78.05;;;37.17;;
68315;SDS011;55508;54.368;18.406;2022-10-31T15:10:27;74.45;;;29.92;;
68315;SDS011;55508;54.368;18.406;2022-10-31T15:12:56;69.88;;;29.88;;
68315;SDS011;55508;54.368;18.406;2022-10-31T15:15:35;70.05;;;29.95;;
68315;SDS011;55508;54.368;18.406;2022-10-31T15:18:03;79.70;;;32.83;;
68315;SDS011;55508;54.368;18.406;2022-10-31T15:20:33;70.90;;;31.08;;
68315;SDS011;55508;54.368;18.406;2022-10-31T15:23:05;73.95;;;33.25;;
68315;SDS011;55508;54.368;18.406;2022-10-31T15:25:33;96.38;;;44.17;;
68315;SDS011;55508;54.368;18.406;2022-10-31T15:28:00;120.32;;;53.58;;
68315;SDS011;55508;54.368;18.406;2022-10-31T15:30:28;119.90;;;48.80;;
68315;SDS011;55508;54.368;18.406;2022-10-31T15:32:55;116.95;;;51.13;;
68315;SDS011;55508;54.368;18.406;2022-10-31T15:35:25;135.82;;;52.83;;
68315;SDS011;55508;54.368;18.406;2022-10-31T15:37:54;138.27;;;55.22;;
68315;SDS011;55508;54.368;18.406;2022-10-31T15:40:22;123.63;;;47.80;;
68315;SDS011;55508;54.368;18.406;2022-10-31T15:43:00;103.05;;;44.83;;
68315;SDS011;55508;54.368;18.406;2022-10-31T15:45:30;117.38;;;48.25;;
68315;SDS011;55508;54.368;18.406;2022-10-31T15:47:58;116.35;;;46.00;;
68315;SDS011;55508;54.368;18.406;2022-10-31T15:50:30;82.88;;;37.15;;
68315;SDS011;55508;54.368;18.406;2022-10-31T15:52:59;89.33;;;36.73;;
68315;SDS011;55508;54.368;18.406;2022-10-31T15:55:28;82.65;;;35.15;;
68315;SDS011;55508;54.368;18.406;2022-10-31T15:57:57;91.57;;;35.65;;
68315;SDS011;55508;54.368;18.406;2022-10-31T16:00:27;86.45;;;37.20;;
68315;SDS011;55508;54.368;18.406;2022-10-31T16:13:58;86.85;;;38.83;;
68315;SDS011;55508;54.368;18.406;2022-10-31T16:16:28;80.53;;;37.08;;
68315;SDS011;55508;54.368;18.406;2022-10-31T16:19:02;76.55;;;36.42;;
68315;SDS011;55508;54.368;18.406;2022-10-31T16:21:32;71.80;;;33.28;;
68315;SDS011;55508;54.368;18.406;2022-10-31T16:24:01;75.45;;;34.50;;
68315;SDS011;55508;54.368;18.406;2022-10-31T16:26:32;76.28;;;35.10;;
68315;SDS011;55508;54.368;18.406;2022-10-31T16:28:59;67.03;;;33.67;;
68315;SDS011;55508;54.368;18.406;2022-10-31T16:31:37;74.88;;;36.42;;
68315;SDS011;55508;54.368;18.406;2022-10-31T16:34:10;77.35;;;35.65;;
68315;SDS011;55508;54.368;18.406;2022-10-31T16:36:51;72.35;;;33.88;;
68315;SDS011;55508;54.368;18.406;2022-10-31T16:39:18;81.60;;;36.28;;
68315;SDS011;55508;54.368;18.406;2022-10-31T16:41:48;98.63;;;45.80;;
68315;SDS011;55508;54.368;18.406;2022-10-31T16:44:24;101.55;;;44.67;;
68315;SDS011;55508;54.368;18.406;2022-10-31T16:49:42;81.20;;;39.10;;
68315;SDS011;55508;54.368;18.406;2022-10-31T16:52:10;90.35;;;38.65;;
68315;SDS011;55508;54.368;18.406;2022-10-31T16:54:39;109.30;;;39.42;;
68315;SDS011;55508;54.368;18.406;2022-10-31T16:57:08;83.97;;;36.80;;
68315;SDS011;55508;54.368;18.406;2022-10-31T16:59:44;106.82;;;40.38;;
68315;SDS011;55508;54.368;18.406;2022-10-31T17:02:14;89.68;;;38.80;;
68315;SDS011;55508;54.368;18.406;2022-10-31T17:04:42;111.07;;;38.75;;
68315;SDS011;55508;54.368;18.406;2022-10-31T17:07:09;95.70;;;37.58;;
68315;SDS011;55508;54.368;18.406;2022-10-31T17:09:36;91.20;;;36.08;;
68315;SDS011;55508;54.368;18.406;2022-10-31T17:12:05;86.00;;;37.30;;
68315;SDS011;55508;54.368;18.406;2022-10-31T17:14:36;78.23;;;36.60;;
68315;SDS011;55508;54.368;18.406;2022-10-31T17:17:04;86.95;;;40.03;;